Time;durP1;ratioP1;P1;durP2;ratioP2;P2;SDS_P1;SDS_P2;PMS_P1;PMS_P2;Temp;Humidity;BMP_temperature;BMP_pressure;BME280_temperature;BME280_humidity;BME280_pressure;Samples;Min_cycle;Max_cycle;Signal;HPM_P1;HPM_P2
2022/01/05 00:00:47;;;;;;;;;2.25;1.75;;;;;6.28;62.54;100501.94;6135397;22;45289;-81
2022/01/05 00:03:13;;;;;;;;;2.50;1.25;;;;;6.27;62.28;100502.81;6247635;22;46356;-81
2022/01/05 00:05:40;;;;;;;;;2.75;2.50;;;;;6.08;62.39;100468.66;6244608;22;45620;-81
2022/01/05 00:08:06;;;;;;;;;0.75;0.75;;;;;6.12;62.23;100491.34;6246849;22;45300;-81
2022/01/05 00:10:34;;;;;;;;;2.00;1.00;;;;;6.13;62.00;100495.72;6246105;22;45472;-81
2022/01/05 00:13:01;;;;;;;;;1.00;1.00;;;;;6.17;62.49;100500.13;6248518;22;46111;-82
2022/01/05 00:15:30;;;;;;;;;2.00;1.00;;;;;6.02;62.12;100486.03;6247026;22;45210;-81
2022/01/05 00:18:00;;;;;;;;;2.00;2.00;;;;;6.14;62.36;100509.66;6248431;22;45296;-81
2022/01/05 00:20:25;;;;;;;;;1.00;1.00;;;;;5.99;61.83;100491.19;6248518;22;45178;-82
2022/01/05 00:22:51;;;;;;;;;3.75;2.00;;;;;6.08;61.66;100501.75;6248271;22;45437;-81
2022/01/05 00:25:17;;;;;;;;;3.75;0.25;;;;;6.03;61.61;100498.22;6249121;22;45129;-81
2022/01/05 00:27:42;;;;;;;;;2.00;0.25;;;;;5.93;61.50;100489.34;6246492;22;45268;-80
2022/01/05 00:30:08;;;;;;;;;3.00;2.00;;;;;6.05;61.66;100510.44;6247033;22;45548;-82
2022/01/05 00:45:10;;;;;;;;;0.75;0.75;;;;;5.88;60.95;100514.56;6192694;22;74692;-82
2022/01/05 00:47:36;;;;;;;;;2.25;1.50;;;;;5.85;60.94;100518.00;6248610;22;45343;-82
2022/01/05 00:50:04;;;;;;;;;2.00;2.00;;;;;5.75;60.93;100503.09;6246837;22;45245;-82
2022/01/05 00:52:32;;;;;;;;;3.75;3.00;;;;;5.80;61.01;100524.03;6246020;22;45389;-82
2022/01/05 00:54:58;;;;;;;;;1.00;1.00;;;;;5.71;60.83;100509.13;6220379;22;46993;-83
2022/01/05 00:57:36;;;;;;;;;;;;;;;;;;;;;
2022/01/05 01:00:04;;;;;;;;;3.50;1.25;;;;;5.70;61.14;100517.84;6248513;22;69280;-82
2022/01/05 01:02:43;;;;;;;;;;;;;;;;;;;;;
2022/01/05 01:05:16;;;;;;;;;0.50;0.00;;;;;5.68;61.54;100532.59;6247405;22;76223;-83
2022/01/05 01:07:45;;;;;;;;;2.00;2.00;;;;;5.67;61.49;100530.88;6248216;22;45491;-83
2022/01/05 01:10:10;;;;;;;;;5.00;2.00;;;;;5.69;61.79;100540.47;6249210;22;45176;-83
2022/01/05 01:12:38;;;;;;;;;2.50;1.50;;;;;5.58;62.05;100531.59;6249106;22;45236;-83
2022/01/05 01:15:11;;;;;;;;;2.00;2.00;;;;;5.66;61.85;100544.75;6248677;22;45342;-83
2022/01/05 01:17:37;;;;;;;;;1.00;1.00;;;;;5.63;62.13;100542.13;6220979;22;45192;-83
2022/01/05 01:20:05;;;;;;;;;6.00;1.75;;;;;5.55;61.99;100542.00;6221915;22;45197;-83
2022/01/05 01:22:32;;;;;;;;;2.50;2.25;;;;;5.60;62.12;100561.22;6246884;22;45565;-83
2022/01/05 01:25:01;;;;;;;;;2.00;1.00;;;;;5.46;62.08;100548.00;6247024;22;47088;-83
2022/01/05 01:27:26;;;;;;;;;2.50;2.50;;;;;5.52;62.02;100573.31;6220764;22;45404;-83
2022/01/05 01:29:54;;;;;;;;;1.75;1.00;;;;;5.53;62.25;100589.00;6246967;22;45326;-83
2022/01/05 01:32:19;;;;;;;;;1.25;0.50;;;;;5.42;62.47;100563.56;6249270;22;45266;-81
2022/01/05 01:34:47;;;;;;;;;2.00;2.00;;;;;5.39;62.59;100577.47;6246478;22;47015;-83
2022/01/05 01:37:13;;;;;;;;;1.75;0.25;;;;;5.42;62.59;100584.47;6249011;22;45416;-83
2022/01/05 01:39:42;;;;;;;;;3.00;3.00;;;;;5.26;62.37;100571.19;6248966;22;45173;-82
2022/01/05 01:42:11;;;;;;;;;3.00;2.00;;;;;5.39;62.44;100600.09;6246783;22;45433;-83
2022/01/05 01:44:37;;;;;;;;;1.75;1.75;;;;;5.39;62.44;100598.34;6247154;22;46057;-83
2022/01/05 01:47:05;;;;;;;;;2.75;2.00;;;;;5.40;62.72;100613.16;6248489;22;45271;-83
2022/01/05 01:49:31;;;;;;;;;2.25;1.00;;;;;5.27;62.21;100582.53;6248773;22;45146;-82
2022/01/05 01:51:56;;;;;;;;;2.00;1.00;;;;;5.41;62.52;100621.88;6248521;22;45484;-82
2022/01/05 01:54:28;;;;;;;;;2.25;1.75;;;;;5.31;62.67;100600.84;6250284;22;46138;-82
2022/01/05 01:56:54;;;;;;;;;2.75;1.75;;;;;5.36;62.58;100626.16;6248421;22;45096;-82
2022/01/05 01:59:22;;;;;;;;;1.00;1.00;;;;;5.35;62.09;100638.31;6246756;22;45133;-83
2022/01/05 02:01:50;;;;;;;;;3.00;3.00;;;;;5.22;62.28;100615.50;6246152;22;45468;-82
2022/01/05 02:04:15;;;;;;;;;3.75;2.00;;;;;5.22;62.19;100608.53;6248514;22;45362;-81
2022/01/05 02:06:41;;;;;;;;;1.00;1.00;;;;;5.19;62.12;100612.84;6248477;22;45338;-82
2022/01/05 02:09:06;;;;;;;;;5.25;4.50;;;;;5.19;61.92;100631.09;6246295;22;45255;-83
2022/01/05 02:11:33;;;;;;;;;5.25;4.00;;;;;5.21;62.07;100637.19;6246326;22;45508;-82
2022/01/05 02:13:59;;;;;;;;;2.50;1.75;;;;;5.31;62.06;100653.03;6221248;22;47079;-82
2022/01/05 02:16:31;;;;;;;;;4.00;2.00;;;;;5.29;61.89;100654.78;6248442;22;45116;-81
2022/01/05 02:18:58;;;;;;;;;2.00;1.00;;;;;5.15;61.80;100637.13;6220830;22;45330;-83
2022/01/05 02:21:24;;;;;;;;;3.00;1.25;;;;;5.20;61.68;100656.34;6248662;22;45208;-82
2022/01/05 02:23:50;;;;;;;;;6.00;1.50;;;;;5.17;61.99;100641.50;6246055;22;47262;-83
2022/01/05 02:26:17;;;;;;;;;2.00;2.00;;;;;5.28;61.82;100657.34;6221190;22;45205;-83
2022/01/05 02:28:43;;;;;;;;;1.00;1.00;;;;;5.17;61.37;100644.13;6247209;22;45188;-83
2022/01/05 02:31:08;;;;;;;;;3.00;2.00;;;;;5.21;61.29;100660.69;6246682;22;45224;-83
2022/01/05 02:33:37;;;;;;;;;1.00;1.00;;;;;5.15;61.59;100656.25;6248630;22;46203;-83
2022/01/05 02:36:05;;;;;;;;;1.75;0.50;;;;;5.06;61.61;100638.72;6247987;22;45366;-83
2022/01/05 02:38:31;;;;;;;;;4.25;2.75;;;;;5.14;61.53;100658.84;6220652;22;45216;-82
2022/01/05 02:41:07;;;;;;;;;1.00;1.00;;;;;5.05;61.32;100644.81;6222669;22;45356;-82
2022/01/05 02:43:39;;;;;;;;;2.00;2.00;;;;;5.06;61.43;100643.06;6251213;22;45460;-82
2022/01/05 02:46:09;;;;;;;;;5.00;2.75;;;;;5.10;61.33;100663.13;6249437;22;45231;-83
2022/01/05 02:48:37;;;;;;;;;6.00;3.00;;;;;5.06;61.18;100656.97;6224686;22;45506;-83
2022/01/05 02:51:05;;;;;;;;;2.50;2.25;;;;;5.10;61.22;100665.72;6249447;22;45404;-83
2022/01/05 02:53:32;;;;;;;;;1.75;1.75;;;;;5.15;61.39;100668.44;6251610;22;45324;-83
2022/01/05 02:55:57;;;;;;;;;6.75;2.75;;;;;5.04;61.30;100650.84;6251366;22;45232;-82
2022/01/05 02:58:23;;;;;;;;;0.25;0.25;;;;;4.94;61.02;100655.88;6252046;22;45280;-82
2022/01/05 03:00:52;;;;;;;;;1.25;1.25;;;;;5.07;61.59;100689.16;6251571;22;45304;-83
2022/01/05 03:03:17;;;;;;;;;1.00;1.00;;;;;4.97;61.14;100677.72;6249968;22;46112;-83
2022/01/05 03:05:43;;;;;;;;;4.25;1.25;;;;;5.01;60.96;100691.69;6223627;22;45346;-83
2022/01/05 03:08:11;;;;;;;;;2.00;0.75;;;;;5.02;61.55;100696.03;6222805;22;45299;-83
2022/01/05 03:10:39;;;;;;;;;3.00;2.00;;;;;4.87;61.41;100673.16;6249086;22;45474;-83
2022/01/05 03:13:07;;;;;;;;;1.00;1.00;;;;;4.99;61.13;100701.19;6251391;22;45880;-82
2022/01/05 03:15:36;;;;;;;;;1.50;1.00;;;;;4.90;61.14;100686.25;6223569;22;45280;-81
2022/01/05 03:18:03;;;;;;;;;3.50;2.00;;;;;4.95;61.26;100697.66;6249696;22;45178;-82
2022/01/05 03:20:31;;;;;;;;;1.00;1.00;;;;;4.92;61.52;100694.09;6249459;22;45813;-82
2022/01/05 03:22:58;;;;;;;;;2.75;2.25;;;;;4.84;61.13;100686.16;6250924;22;47612;-82
2022/01/05 03:25:25;;;;;;;;;2.00;2.00;;;;;4.83;60.99;100694.81;6248968;22;45200;-82
2022/01/05 03:27:54;;;;;;;;;3.00;2.00;;;;;4.89;61.21;100699.25;6252030;22;45161;-82
2022/01/05 03:30:22;;;;;;;;;2.25;1.25;;;;;4.84;61.30;100700.06;6248694;22;45478;-83
2022/01/05 03:35:34;;;;;;;;;3.00;3.00;;;;;4.90;61.39;100737.56;6251476;22;45394;-83
2022/01/05 03:38:04;;;;;;;;;5.00;2.75;;;;;4.76;61.15;100706.00;6251122;22;45164;-83
2022/01/05 03:40:35;;;;;;;;;2.50;2.50;;;;;4.83;61.22;100724.38;6223941;22;45370;-82
2022/01/05 03:43:02;;;;;;;;;1.00;1.00;;;;;4.85;61.61;100727.03;6222971;22;48422;-83
2022/01/05 03:45:28;;;;;;;;;2.00;2.00;;;;;4.84;61.70;100730.50;6249207;22;46040;-82
2022/01/05 03:47:53;;;;;;;;;3.00;2.00;;;;;4.73;61.86;100712.03;6251651;22;45321;-83
2022/01/05 03:50:19;;;;;;;;;1.00;1.00;;;;;4.73;61.39;100726.78;6223704;22;45185;-82
2022/01/05 03:52:47;;;;;;;;;9.25;2.75;;;;;4.70;61.72;100719.78;6221166;22;47507;-82
2022/01/05 03:55:12;;;;;;;;;2.00;2.00;;;;;4.73;61.68;100738.13;6249789;22;45446;-83
2022/01/05 03:57:38;;;;;;;;;1.25;1.25;;;;;4.80;61.74;100754.75;6221145;22;45404;-82
2022/01/05 04:00:07;;;;;;;;;1.75;1.00;;;;;4.76;61.45;100745.13;6247410;22;45086;-82
2022/01/05 04:02:36;;;;;;;;;4.50;2.50;;;;;4.78;61.78;100753.81;6248952;22;46330;-82
2022/01/05 04:05:01;;;;;;;;;2.00;2.00;;;;;4.84;61.70;100753.97;6221797;22;45378;-82
2022/01/05 04:07:30;;;;;;;;;2.00;2.00;;;;;4.77;61.77;100746.88;6220517;22;45338;-82
2022/01/05 04:10:08;;;;;;;;;;;;;;;;;;;;;
2022/01/05 04:12:37;;;;;;;;;1.00;1.00;;;;;4.73;61.39;100737.22;6247559;22;73804;-83
2022/01/05 04:15:03;;;;;;;;;1.50;0.75;;;;;4.77;61.73;100737.31;6247564;22;45251;-83
2022/01/05 04:17:29;;;;;;;;;2.00;1.75;;;;;4.91;61.60;100770.59;6221203;22;45370;-83
2022/01/05 04:20:00;;;;;;;;;0.25;0.25;;;;;4.88;61.93;100761.00;6249670;22;45465;-83
2022/01/05 04:22:28;;;;;;;;;1.75;1.75;;;;;4.89;61.77;100767.94;6249132;22;46418;-83
2022/01/05 04:24:56;;;;;;;;;1.00;1.00;;;;;4.81;61.98;100760.00;6222628;22;45166;-83
2022/01/05 04:27:22;;;;;;;;;1.75;1.75;;;;;4.93;61.86;100782.84;6221541;22;45222;-83
2022/01/05 04:29:47;;;;;;;;;3.50;1.00;;;;;4.91;61.48;100775.81;6249719;22;45168;-82
2022/01/05 04:32:13;;;;;;;;;2.00;1.00;;;;;4.82;61.72;100763.50;6247800;22;47261;-82
2022/01/05 04:34:39;;;;;;;;;2.00;2.00;;;;;4.74;61.84;100765.94;6248699;22;45208;-82
2022/01/05 04:37:13;;;;;;;;;2.75;2.00;;;;;4.74;62.01;100765.06;6250194;22;45311;-82
2022/01/05 04:39:41;;;;;;;;;2.75;2.00;;;;;4.76;62.12;100764.25;6222104;22;45397;-81
2022/01/05 04:42:12;;;;;;;;;4.00;1.00;;;;;4.75;61.97;100772.03;6245193;22;48241;-83
2022/01/05 04:44:45;;;;;;;;;2.00;2.00;;;;;4.71;61.68;100770.22;6249488;22;45196;-83
2022/01/05 04:47:12;;;;;;;;;2.75;1.25;;;;;4.71;62.15;100778.03;6247381;22;45521;-82
2022/01/05 04:49:38;;;;;;;;;3.00;2.00;;;;;4.71;62.50;100784.13;6247264;22;45673;-83
2022/01/05 04:52:04;;;;;;;;;2.75;1.25;;;;;4.66;62.15;100783.16;6220364;22;46714;-83
2022/01/05 04:54:32;;;;;;;;;2.50;1.00;;;;;4.76;62.20;100805.97;6246605;22;45366;-82
2022/01/05 04:56:58;;;;;;;;;1.00;1.00;;;;;4.78;62.53;100803.38;6248568;22;45117;-83
2022/01/05 04:59:23;;;;;;;;;4.00;2.00;;;;;4.73;62.64;100811.13;6247260;22;45495;-82
2022/01/05 05:01:51;;;;;;;;;3.50;1.75;;;;;4.66;62.36;100798.81;6221218;22;47301;-82
2022/01/05 05:04:17;;;;;;;;;5.00;2.00;;;;;4.58;62.34;100793.41;6246696;22;45162;-83
2022/01/05 05:06:43;;;;;;;;;1.00;1.00;;;;;4.71;62.62;100810.22;6246759;22;45172;-82
2022/01/05 05:09:11;;;;;;;;;2.00;1.00;;;;;4.60;62.29;100799.56;6221098;22;45435;-82
2022/01/05 05:11:39;;;;;;;;;2.00;2.00;;;;;4.67;62.64;100815.31;6248567;22;45401;-81
2022/01/05 05:14:07;;;;;;;;;3.00;2.00;;;;;4.69;62.79;100824.94;6221119;22;45253;-82
2022/01/05 05:16:32;;;;;;;;;4.25;1.50;;;;;4.64;62.75;100822.22;6247100;22;45165;-83
2022/01/05 05:18:58;;;;;;;;;1.25;1.25;;;;;4.54;62.73;100817.66;6247384;22;45395;-83
2022/01/05 05:21:26;;;;;;;;;5.00;2.00;;;;;4.66;62.70;100831.81;6221123;22;46645;-82
2022/01/05 05:23:52;;;;;;;;;0.75;0.50;;;;;4.68;62.64;100833.63;6248919;22;45303;-82
2022/01/05 05:26:19;;;;;;;;;1.00;1.00;;;;;4.72;63.02;100842.38;6221579;22;45270;-82
2022/01/05 05:28:47;;;;;;;;;1.50;1.50;;;;;4.68;62.74;100835.31;6246747;22;45437;-81
2022/01/05 05:31:23;;;;;;;;;4.50;2.00;;;;;4.69;63.20;100834.50;6246537;22;46898;-83
2022/01/05 05:33:49;;;;;;;;;3.50;2.00;;;;;4.80;62.93;100844.28;6247144;22;45248;-82
2022/01/05 05:36:14;;;;;;;;;1.50;1.50;;;;;4.72;62.47;100845.84;6247644;22;45334;-82
2022/01/05 05:38:40;;;;;;;;;3.00;2.00;;;;;4.71;63.11;100851.06;6246697;22;45386;-83
2022/01/05 05:41:06;;;;;;;;;2.50;1.00;;;;;4.76;62.75;100857.25;6247095;22;47004;-82
2022/01/05 05:43:39;;;;;;;;;5.50;4.00;;;;;4.71;62.92;100856.28;6248818;22;45200;-82
2022/01/05 05:46:04;;;;;;;;;2.00;1.00;;;;;4.70;63.33;100857.09;6247591;22;45376;-82
2022/01/05 05:48:30;;;;;;;;;1.75;1.50;;;;;4.76;63.21;100871.16;6221626;22;45758;-81
2022/01/05 05:50:55;;;;;;;;;3.25;2.00;;;;;4.80;63.12;100879.94;6248191;22;46432;-82
2022/01/05 05:53:21;;;;;;;;;7.00;5.00;;;;;4.81;63.05;100874.75;6247990;22;45440;-82
2022/01/05 05:55:46;;;;;;;;;2.25;1.75;;;;;4.78;63.03;100865.97;6247083;22;45354;-82
2022/01/05 05:58:12;;;;;;;;;2.00;2.00;;;;;4.83;63.15;100864.34;6249422;22;45216;-83
2022/01/05 06:00:37;;;;;;;;;1.50;1.50;;;;;4.72;63.27;100858.91;6247122;22;47809;-83
2022/01/05 06:03:03;;;;;;;;;2.50;1.50;;;;;4.67;63.09;100842.25;6249006;22;45247;-82
2022/01/05 06:05:31;;;;;;;;;1.75;1.00;;;;;4.70;62.99;100857.97;6221639;22;45202;-83
2022/01/05 06:08:04;;;;;;;;;3.00;2.00;;;;;4.70;62.96;100867.53;6248469;22;45173;-83
2022/01/05 06:10:35;;;;;;;;;2.75;2.00;;;;;4.75;63.23;100890.25;6247047;22;46103;-82
2022/01/05 06:13:03;;;;;;;;;1.25;1.00;;;;;4.66;63.34;100882.25;6248548;22;45362;-82
2022/01/05 06:15:50;;;;;;;;;5.00;5.00;;;;;4.68;63.27;100888.38;6248336;22;45192;-82
2022/01/05 06:18:18;;;;;;;;;2.50;1.50;;;;;4.67;62.93;100902.25;6246205;22;45304;-82
2022/01/05 06:20:52;;;;;;;;;0.00;0.00;;;;;4.63;63.15;100890.88;6220690;22;46010;-81
2022/01/05 06:23:25;;;;;;;;;4.00;3.00;;;;;4.64;63.28;100894.34;6245760;22;45205;-83
2022/01/05 06:25:50;;;;;;;;;5.25;4.00;;;;;4.64;63.36;100889.13;6245817;22;45172;-82
2022/01/05 06:28:23;;;;;;;;;1.50;1.50;;;;;4.68;63.64;100905.72;6246228;22;45247;-82
2022/01/05 06:30:55;;;;;;;;;2.75;2.75;;;;;4.63;63.51;100898.69;6248414;22;45314;-82
2022/01/05 06:33:23;;;;;;;;;5.25;1.50;;;;;4.59;63.88;100894.25;6246797;22;45370;-83
2022/01/05 06:35:54;;;;;;;;;6.00;2.25;;;;;4.70;63.74;100922.28;6220460;22;45188;-83
2022/01/05 06:38:34;;;;;;;;;;;;;;;;;;;;;
2022/01/05 06:41:03;;;;;;;;;1.25;1.25;;;;;4.60;63.99;100905.56;6245684;22;73816;-83
2022/01/05 06:43:31;;;;;;;;;4.00;3.50;;;;;4.66;63.84;100920.47;6219474;22;45189;-83
2022/01/05 06:45:58;;;;;;;;;2.25;1.00;;;;;4.68;63.83;100930.09;6245146;22;45288;-83
2022/01/05 06:48:33;;;;;;;;;;;;;;;;;;;;;
2022/01/05 06:51:01;;;;;;;;;1.00;1.00;;;;;4.50;64.13;100917.50;6245702;22;73865;-83
2022/01/05 06:53:28;;;;;;;;;3.00;2.00;;;;;4.51;64.08;100927.06;6246494;22;45261;-83
2022/01/05 06:56:01;;;;;;;;;2.75;2.75;;;;;4.42;64.20;100904.28;6219748;22;45193;-83
2022/01/05 06:58:37;;;;;;;;;3.50;2.50;;;;;4.40;64.40;100920.72;6247070;22;45237;-83
2022/01/05 07:01:05;;;;;;;;;2.75;1.25;;;;;4.40;64.08;100923.34;6244769;22;48262;-82
2022/01/05 07:03:39;;;;;;;;;2.00;1.00;;;;;4.34;64.50;100912.78;6219447;22;45646;-84
2022/01/05 07:06:07;;;;;;;;;1.00;1.00;;;;;4.36;64.38;100924.13;6218710;22;45497;-83
2022/01/05 07:08:33;;;;;;;;;2.50;2.50;;;;;4.46;64.53;100944.31;6219380;22;45382;-84
2022/01/05 07:11:07;;;;;;;;;1.75;0.75;;;;;4.35;64.60;100935.38;6219236;22;45645;-83
2022/01/05 07:17:18;;;;;;;;;1.50;1.00;;;;;4.38;64.74;100956.28;6223629;22;45173;-82
2022/01/05 07:19:43;;;;;;;;;2.00;0.75;;;;;4.30;64.28;100943.06;6219340;22;45442;-81
2022/01/05 07:37:37;;;;;;;;;2.00;1.00;;;;;4.26;65.10;100992.47;6015250;23;45573;-83
2022/01/05 07:43:40;;;;;;;;;2.25;2.00;;;;;4.09;65.44;100987.72;6008453;23;45238;-82
2022/01/05 07:46:13;;;;;;;;;1.25;1.00;;;;;4.06;65.73;100977.19;6086593;23;45216;-82
2022/01/05 07:48:44;;;;;;;;;2.00;2.00;;;;;4.11;65.55;100987.75;6098912;23;47161;-83
2022/01/05 07:51:24;;;;;;;;;;;;;;;;;;;;;
2022/01/05 07:53:54;;;;;;;;;2.50;1.50;;;;;4.10;65.66;100988.59;6121075;23;69189;-82
2022/01/05 07:59:46;;;;;;;;;2.25;1.50;;;;;4.17;65.75;101003.53;6190456;22;46471;-83
2022/01/05 08:02:32;;;;;;;;;2.50;1.75;;;;;4.12;65.81;100989.53;6247536;22;45327;-84
2022/01/05 08:04:57;;;;;;;;;3.25;2.00;;;;;4.12;66.15;101002.56;6249066;22;45370;-81
2022/01/05 08:07:23;;;;;;;;;5.75;3.25;;;;;4.14;66.01;101012.16;6222097;22;45419;-81
2022/01/05 08:09:51;;;;;;;;;5.50;1.75;;;;;4.13;65.65;101009.50;6249004;22;45997;-82
2022/01/05 08:12:16;;;;;;;;;0.00;0.00;;;;;4.18;65.86;101024.41;6220842;22;45218;-81
2022/01/05 08:14:44;;;;;;;;;5.00;1.50;;;;;4.13;65.84;101014.72;6247491;22;45468;-83
2022/01/05 08:17:10;;;;;;;;;2.00;2.00;;;;;4.23;66.16;101031.50;6246912;22;45434;-82
2022/01/05 08:19:35;;;;;;;;;5.50;2.00;;;;;4.27;66.01;101047.22;6248175;22;46351;-82
2022/01/05 08:22:00;;;;;;;;;1.25;1.25;;;;;4.13;66.26;101027.75;6220112;22;45281;-81
2022/01/05 08:24:26;;;;;;;;;3.50;1.00;;;;;4.23;65.64;101048.00;6246653;22;45544;-82
2022/01/05 08:26:52;;;;;;;;;2.25;1.25;;;;;4.26;65.76;101053.28;6247083;22;45394;-83
2022/01/05 08:29:20;;;;;;;;;6.75;3.75;;;;;4.18;66.08;101044.41;6247449;22;47580;-80
2022/01/05 08:31:45;;;;;;;;;6.50;2.50;;;;;4.20;66.35;101046.19;6220732;22;45206;-81
2022/01/05 08:34:11;;;;;;;;;3.50;2.25;;;;;4.18;65.66;101041.78;6220868;22;45353;-81
2022/01/05 08:36:37;;;;;;;;;1.00;1.00;;;;;4.20;66.39;101047.94;6247927;22;45174;-81
2022/01/05 08:39:03;;;;;;;;;3.25;3.25;;;;;4.17;65.98;101042.59;6247352;22;45301;-82
2022/01/05 08:41:29;;;;;;;;;5.00;3.00;;;;;4.20;65.94;101051.41;6247668;22;45308;-81
2022/01/05 08:43:54;;;;;;;;;3.50;3.00;;;;;4.26;65.98;101053.28;6248094;22;45268;-80
2022/01/05 08:46:21;;;;;;;;;3.25;2.50;;;;;4.31;66.13;101049.09;6247846;22;45584;-81
2022/01/05 08:48:47;;;;;;;;;1.00;1.00;;;;;4.40;66.29;101069.28;6245969;22;47031;-81
2022/01/05 08:51:12;;;;;;;;;6.00;3.00;;;;;4.27;66.00;101047.22;6245220;22;45376;-81
2022/01/05 08:53:38;;;;;;;;;2.00;2.00;;;;;4.29;66.34;101050.75;6219172;22;45469;-81
2022/01/05 08:56:04;;;;;;;;;4.00;2.75;;;;;4.38;66.40;101058.84;6245698;22;45648;-81
2022/01/05 08:58:29;;;;;;;;;2.00;1.50;;;;;4.41;66.36;101066.75;6244991;22;45611;-81
2022/01/05 09:00:55;;;;;;;;;2.00;2.00;;;;;4.50;66.00;101083.47;6246885;22;45162;-80
2022/01/05 09:03:21;;;;;;;;;5.00;2.25;;;;;4.47;65.95;101067.75;6247376;22;45245;-80
2022/01/05 09:05:46;;;;;;;;;4.00;2.00;;;;;4.52;66.16;101087.88;6247398;22;45396;-82
2022/01/05 09:08:13;;;;;;;;;2.00;1.00;;;;;4.41;66.18;101061.53;6219198;22;47153;-82
2022/01/05 09:10:39;;;;;;;;;3.00;1.25;;;;;4.47;66.26;101081.66;6247174;22;45431;-80
2022/01/05 09:13:05;;;;;;;;;2.25;1.75;;;;;4.48;66.47;101083.41;6248254;22;45346;-80
2022/01/05 09:15:33;;;;;;;;;3.00;1.50;;;;;4.53;66.28;101087.03;6247139;22;45419;-80
2022/01/05 09:17:59;;;;;;;;;4.75;2.00;;;;;4.58;66.49;101093.25;6244658;22;48330;-82
2022/01/05 09:20:26;;;;;;;;;1.50;1.50;;;;;4.64;66.46;101097.72;6247151;22;45153;-82
2022/01/05 09:22:55;;;;;;;;;2.00;1.00;;;;;4.55;66.46;101087.97;6219294;22;45388;-82
2022/01/05 09:25:23;;;;;;;;;2.00;2.00;;;;;4.58;66.34;101076.72;6244881;22;45351;-82
2022/01/05 09:27:50;;;;;;;;;3.50;2.00;;;;;4.72;66.39;101091.00;6246825;22;45365;-82
2022/01/05 09:30:16;;;;;;;;;2.00;1.50;;;;;4.79;66.62;101098.13;6247519;22;45178;-83
2022/01/05 09:32:42;;;;;;;;;4.50;2.00;;;;;4.75;66.60;101092.78;6247500;22;45216;-82
2022/01/05 09:35:11;;;;;;;;;4.00;2.00;;;;;4.79;65.88;101087.69;6220569;22;45188;-81
2022/01/05 09:37:50;;;;;;;;;5.00;5.00;;;;;4.95;66.22;101106.34;6244308;22;48096;-81
2022/01/05 09:43:10;;;;;;;;;3.00;3.00;;;;;5.05;66.09;101127.50;6247675;22;45249;-81
2022/01/05 09:45:38;;;;;;;;;1.00;1.00;;;;;4.98;66.02;101114.25;6247744;22;45195;-81
2022/01/05 09:48:41;;;;;;;;;3.50;2.00;;;;;5.16;65.67;101140.81;6245371;22;48109;-81
2022/01/05 09:51:10;;;;;;;;;2.50;1.50;;;;;5.16;65.84;101137.28;6245314;22;45177;-85
2022/01/05 09:53:38;;;;;;;;;2.50;2.00;;;;;5.23;65.70;101141.81;6246521;22;45417;-81
2022/01/05 09:56:05;;;;;;;;;1.00;1.00;;;;;5.33;65.94;101146.44;6247306;22;45497;-79
2022/01/05 09:58:32;;;;;;;;;2.00;2.00;;;;;5.35;65.41;101136.91;6246489;22;45227;-80
2022/01/05 10:00:59;;;;;;;;;2.00;2.00;;;;;5.54;65.64;101151.28;6246836;22;45276;-81
2022/01/05 10:03:24;;;;;;;;;2.25;2.25;;;;;5.65;65.66;101164.59;6246903;22;45347;-81
2022/01/05 10:05:50;;;;;;;;;1.75;1.75;;;;;5.80;65.69;101159.72;6219723;22;45503;-81
2022/01/05 10:08:15;;;;;;;;;2.75;2.50;;;;;5.97;65.06;101162.72;6247015;22;45389;-81
2022/01/05 10:10:42;;;;;;;;;2.00;2.00;;;;;6.11;65.06;101161.28;6248729;22;45385;-85
2022/01/05 10:13:08;;;;;;;;;3.00;2.00;;;;;6.08;64.64;101128.97;6253846;22;45369;-83
2022/01/05 10:15:34;;;;;;;;;7.50;3.00;;;;;6.30;64.44;101170.38;6222277;22;45340;-84
2022/01/05 10:18:20;;;;;;;;;1.75;1.75;;;;;6.35;64.02;101165.25;6246232;22;48078;-84
2022/01/05 10:21:01;;;;;;;;;3.00;2.75;;;;;6.34;63.79;101145.22;6249529;22;45165;-83
2022/01/05 10:23:51;;;;;;;;;6.00;3.25;;;;;6.56;63.52;101163.06;6249185;22;45370;-87
2022/01/05 10:30:33;;;;;;;;;6.25;3.75;;;;;6.58;62.99;101169.22;6210509;22;45295;-85
2022/01/05 10:33:08;;;;;;;;;6.00;2.50;;;;;6.60;62.60;101167.53;6225136;22;45551;-81
2022/01/05 10:36:46;;;;;;;;;;;;;;;;;;;;;
2022/01/05 10:43:06;;;;;;;;;3.00;3.00;;;;;7.03;61.94;101184.00;6245243;22;45315;-84
2022/01/05 10:46:30;;;;;;;;;2.75;2.00;;;;;6.92;61.99;101161.97;6246229;22;45304;-82
2022/01/05 10:49:38;;;;;;;;;3.25;1.25;;;;;6.94;61.69;101172.50;6207996;22;45263;-82
2022/01/05 10:52:29;;;;;;;;;5.00;2.25;;;;;7.13;62.10;101185.03;6243496;22;45442;-82
2022/01/05 11:09:11;;;;;;;;;2.75;2.75;;;;;7.73;60.66;101186.91;6192439;22;45391;-83
2022/01/05 11:11:42;;;;;;;;;3.00;3.00;;;;;7.81;59.71;101173.03;6246526;22;45247;-83
2022/01/05 11:14:29;;;;;;;;;2.00;2.00;;;;;8.05;59.78;101180.38;6246186;22;45492;-83
2022/01/05 11:17:00;;;;;;;;;1.75;1.75;;;;;8.21;59.20;101181.44;6243230;22;45509;-82
2022/01/05 11:19:34;;;;;;;;;2.00;2.00;;;;;8.35;58.90;101174.63;6218720;22;47403;-82
2022/01/05 11:22:13;;;;;;;;;3.50;3.50;;;;;8.69;58.50;101194.31;6244062;22;45641;-82
2022/01/05 11:24:44;;;;;;;;;3.25;2.00;;;;;8.77;57.62;101189.16;6245044;22;45253;-83
2022/01/05 11:27:30;;;;;;;;;3.25;2.25;;;;;8.97;57.46;101189.34;6246235;22;45454;-87
2022/01/05 11:29:57;;;;;;;;;2.75;1.50;;;;;8.97;56.75;101179.72;6217753;22;48254;-84
2022/01/05 11:32:26;;;;;;;;;4.50;3.00;;;;;9.16;56.99;101188.66;6244691;22;45257;-82
2022/01/05 11:35:50;;;;;;;;;3.25;3.00;;;;;9.45;56.85;101188.91;6245856;22;45154;-89
2022/01/05 11:38:22;;;;;;;;;1.25;1.00;;;;;9.71;55.93;101186.47;6241071;22;45819;-87
2022/01/05 11:40:51;;;;;;;;;6.25;3.75;;;;;9.82;55.63;101175.16;6243704;22;46887;-83
2022/01/05 11:43:39;;;;;;;;;5.50;3.00;;;;;10.05;54.89;101188.41;6247024;22;45257;-85
2022/01/05 11:46:23;;;;;;;;;4.50;3.25;;;;;10.21;54.36;101179.75;6253097;22;44859;-88
2022/01/05 11:49:11;;;;;;;;;3.00;2.00;;;;;10.45;54.04;101189.56;6260413;22;44866;-84
2022/01/05 11:55:06;;;;;;;;;8.50;3.75;;;;;11.14;52.03;101176.53;6217738;22;45323;-84
2022/01/05 12:09:08;;;;;;;;;4.50;3.00;;;;;12.80;49.19;101177.03;5970643;23;45295;-89
2022/01/05 12:19:22;;;;;;;;;;;;;;;;;;;;;
2022/01/05 12:25:12;;;;;;;;;4.33;3.67;;;;;13.57;46.92;101171.19;5979430;23;45337;-85
2022/01/05 12:28:22;;;;;;;;;2.00;2.00;;;;;13.50;46.12;101176.53;5953580;23;45297;-85
2022/01/05 12:39:04;;;;;;;;;3.00;1.67;;;;;13.61;44.63;101188.81;5894118;24;45553;-83
2022/01/05 12:42:15;;;;;;;;;;;;;;;;;;;;;
2022/01/05 12:45:35;;;;;;;;;3.33;3.33;;;;;13.06;44.99;101168.06;5865755;24;73761;-87
2022/01/05 12:49:25;;;;;;;;;;;;;;;;;;;;;
2022/01/05 12:52:14;;;;;;;;;2.33;2.00;;;;;12.67;45.02;101182.38;5869407;23;68812;-88
2022/01/05 12:54:44;;;;;;;;;2.00;2.00;;;;;12.91;45.95;101158.47;5973491;23;45439;-85
2022/01/05 12:57:15;;;;;;;;;6.00;2.00;;;;;13.14;45.48;101165.34;6191602;22;47149;-86
2022/01/05 12:59:46;;;;;;;;;8.33;2.67;;;;;13.28;44.72;101173.22;6218007;22;45439;-88
2022/01/05 13:02:18;;;;;;;;;1.33;1.33;;;;;13.33;45.06;101171.41;6252882;22;45110;-89
2022/01/05 13:04:46;;;;;;;;;2.67;2.00;;;;;13.59;45.43;101176.47;6252613;22;45267;-82
2022/01/05 13:11:03;;;;;;;;;3.00;1.33;;;;;14.11;44.37;101179.47;6248422;22;45328;-87
2022/01/05 13:17:13;;;;;;;;;1.00;1.00;;;;;14.02;43.54;101168.97;6244439;22;45251;-84
2022/01/05 13:19:51;;;;;;;;;5.33;3.67;;;;;14.00;42.62;101172.53;6246511;22;47352;-83
2022/01/05 13:22:42;;;;;;;;;2.00;2.00;;;;;13.87;42.81;101174.41;6249328;22;45180;-84
2022/01/05 13:25:25;;;;;;;;;3.00;3.00;;;;;13.59;42.85;101174.69;6249093;22;45445;-84
2022/01/05 13:28:05;;;;;;;;;;;;;;;;;;;;;
2022/01/05 13:30:34;;;;;;;;;2.00;0.33;;;;;13.32;43.45;101178.47;6249511;22;75229;-83
2022/01/05 13:33:07;;;;;;;;;2.33;2.00;;;;;13.32;43.63;101190.81;6247055;22;45541;-83
2022/01/05 13:35:40;;;;;;;;;4.33;1.33;;;;;13.16;43.54;101190.91;6249814;22;45401;-83
2022/01/05 13:38:12;;;;;;;;;3.33;3.00;;;;;12.92;44.31;101181.38;6249138;22;45180;-84
2022/01/05 13:40:47;;;;;;;;;4.33;4.00;;;;;12.77;44.22;101178.81;6246425;22;46997;-85
2022/01/05 13:43:25;;;;;;;;;;;;;;;;;;;;;
2022/01/05 13:45:54;;;;;;;;;3.00;2.33;;;;;12.52;44.66;101186.88;6247626;22;67309;-86
2022/01/05 13:48:31;;;;;;;;;3.75;2.75;;;;;12.22;44.21;101184.38;6247990;22;45311;-86
2022/01/05 13:51:05;;;;;;;;;3.00;3.00;;;;;11.99;44.33;101195.84;6221305;22;46085;-86
2022/01/05 13:53:34;;;;;;;;;2.67;1.67;;;;;11.78;44.81;101175.63;6245961;22;45375;-85